createdAt,value
2022-08-17T00:00:34.226Z,14.43
2022-08-17T00:03:05.986Z,13.35
2022-08-17T00:05:35.560Z,14.23
2022-08-17T00:08:05.580Z,15.07
2022-08-17T00:10:33.950Z,15.77
2022-08-17T00:13:06.285Z,14.60
2022-08-17T00:15:34.492Z,14.70
2022-08-17T00:18:02.881Z,14.65
2022-08-17T00:20:33.615Z,15.25
2022-08-17T00:23:06.536Z,15.40
2022-08-17T00:25:35.055Z,14.90
2022-08-17T00:28:03.299Z,15.68
2022-08-17T00:30:50.995Z,15.15
2022-08-17T00:33:20.742Z,14.82
2022-08-17T00:35:49.900Z,16.33
2022-08-17T00:38:19.680Z,13.93
2022-08-17T00:40:50.022Z,15.38
2022-08-17T00:43:21.423Z,14.60
2022-08-17T00:45:50.058Z,14.60
2022-08-17T00:48:27.178Z,13.90
2022-08-17T00:51:00.242Z,14.87
2022-08-17T00:53:31.458Z,14.67
2022-08-17T00:56:00.287Z,14.27
2022-08-17T00:58:34.986Z,14.83
2022-08-17T01:01:05.400Z,14.20
2022-08-17T01:03:33.736Z,15.23
2022-08-17T01:06:02.133Z,15.57
2022-08-17T01:08:32.242Z,14.20
2022-08-17T01:11:02.507Z,14.55
2022-08-17T01:13:35.521Z,14.02
2022-08-17T01:16:10.879Z,14.53
2022-08-17T01:18:39.164Z,14.40
2022-08-17T01:21:10.600Z,15.07
2022-08-17T01:23:42.566Z,13.67
2022-08-17T01:26:10.782Z,14.00
2022-08-17T01:28:54.348Z,15.23
2022-08-17T01:31:24.270Z,15.05
2022-08-17T01:33:52.738Z,15.57
2022-08-17T01:36:21.120Z,15.17
2022-08-17T01:38:50.820Z,14.90
2022-08-17T01:41:18.995Z,14.83
2022-08-17T01:43:49.022Z,14.37
2022-08-17T01:46:18.086Z,15.37
2022-08-17T01:48:47.671Z,16.53
2022-08-17T01:51:16.682Z,15.10
2022-08-17T01:53:47.396Z,15.60
2022-08-17T01:56:18.929Z,16.57
2022-08-17T01:58:47.358Z,15.10
2022-08-17T02:01:16.924Z,16.93
2022-08-17T02:03:59.286Z,17.23
2022-08-17T02:06:29.812Z,16.90
2022-08-17T02:09:02.534Z,17.17
2022-08-17T02:11:33.797Z,15.57
2022-08-17T02:14:04.098Z,15.60
2022-08-17T02:16:37.141Z,15.77
2022-08-17T02:19:06.861Z,15.70
2022-08-17T02:21:35.138Z,16.20
2022-08-17T02:24:03.462Z,16.50
2022-08-17T02:26:33.696Z,16.53
2022-08-17T02:29:02.097Z,18.53
2022-08-17T02:31:31.375Z,16.17
2022-08-17T02:34:03.515Z,15.00
2022-08-17T02:36:33.907Z,16.33
2022-08-17T02:39:02.689Z,16.20
2022-08-17T02:41:32.387Z,15.97
2022-08-17T02:44:00.581Z,15.97
2022-08-17T02:46:29.214Z,15.57
2022-08-17T02:48:57.827Z,15.73
2022-08-17T02:51:26.283Z,15.73
2022-08-17T02:54:35.747Z,16.77
2022-08-17T02:56:44.222Z,15.40
2022-08-17T02:59:12.691Z,16.47
2022-08-17T03:01:41.266Z,16.70
2022-08-17T03:04:09.659Z,15.27
2022-08-17T03:06:38.237Z,16.07
2022-08-17T03:09:06.573Z,15.27
2022-08-17T03:11:35.527Z,16.03
2022-08-17T03:14:05.227Z,15.20
2022-08-17T03:16:33.801Z,17.17
2022-08-17T03:19:03.007Z,22.27
2022-08-17T03:21:31.342Z,23.67
2022-08-17T03:23:59.625Z,17.90
2022-08-17T03:26:29.792Z,18.70
2022-08-17T03:28:58.176Z,15.60
2022-08-17T03:31:27.921Z,16.80
2022-08-17T03:33:56.553Z,16.30
2022-08-17T03:36:24.933Z,18.77
2022-08-17T03:38:53.142Z,18.93
2022-08-17T03:41:23.209Z,15.90
2022-08-17T03:43:51.547Z,15.83
2022-08-17T03:46:37.417Z,16.00
2022-08-17T03:49:26.615Z,17.77
2022-08-17T03:52:12.262Z,20.80
2022-08-17T03:54:57.883Z,15.67
2022-08-17T03:57:26.173Z,16.40
2022-08-17T03:59:54.637Z,18.10
2022-08-17T04:02:24.455Z,19.53
2022-08-17T04:04:54.502Z,16.23
2022-08-17T04:07:24.130Z,16.33
2022-08-17T04:09:52.664Z,15.80
2022-08-17T04:12:21.862Z,17.83
2022-08-17T04:14:52.810Z,16.90
2022-08-17T04:17:23.632Z,19.37
2022-08-17T04:19:53.338Z,17.87
2022-08-17T04:22:31.454Z,16.63
2022-08-17T04:25:02.677Z,16.47
2022-08-17T04:27:30.867Z,15.77
2022-08-17T04:29:59.734Z,19.87
2022-08-17T04:33:05.448Z,18.23
2022-08-17T04:35:21.215Z,19.97
2022-08-17T04:37:49.436Z,16.90
2022-08-17T04:40:35.908Z,20.07
2022-08-17T04:43:05.231Z,19.33
2022-08-17T04:45:33.492Z,19.80
2022-08-17T04:48:01.869Z,19.20
2022-08-17T04:50:31.496Z,19.07
2022-08-17T04:53:00.338Z,20.27
2022-08-17T04:55:28.849Z,21.27
2022-08-17T04:57:57.060Z,24.67
2022-08-17T05:00:26.114Z,27.13
2022-08-17T05:02:55.829Z,27.07
2022-08-17T05:05:26.745Z,27.53
2022-08-17T05:07:57.644Z,25.67
2022-08-17T05:10:26.247Z,27.13
2022-08-17T05:12:59.777Z,28.27
2022-08-17T05:15:28.118Z,29.07
2022-08-17T05:17:56.428Z,29.07
2022-08-17T05:20:24.811Z,28.87
2022-08-17T05:22:53.625Z,28.00
2022-08-17T05:25:25.618Z,28.70
2022-08-17T05:27:54.476Z,29.47
2022-08-17T05:30:22.876Z,28.17
2022-08-17T05:32:55.251Z,27.53
2022-08-17T05:35:23.684Z,28.87
2022-08-17T05:37:51.961Z,28.97
2022-08-17T05:40:21.066Z,28.23
2022-08-17T05:42:50.950Z,27.77
2022-08-17T05:45:46.089Z,28.43
2022-08-17T05:48:10.362Z,28.63
2022-08-17T05:50:44.448Z,29.13
2022-08-17T05:53:16.884Z,28.80
2022-08-17T05:55:49.775Z,27.60
2022-08-17T05:58:22.904Z,30.00
2022-08-17T06:00:56.115Z,30.40
2022-08-17T06:03:30.575Z,30.13
2022-08-17T06:06:05.585Z,31.13
2022-08-17T06:08:51.513Z,31.70
2022-08-17T06:11:24.311Z,32.27
2022-08-17T06:14:27.019Z,30.90
2022-08-17T06:16:56.531Z,31.33
2022-08-17T06:19:28.592Z,30.57
2022-08-17T06:21:56.962Z,28.83
2022-08-17T06:24:28.638Z,27.73
2022-08-17T06:26:58.558Z,28.83
2022-08-17T06:29:37.314Z,26.63
2022-08-17T06:32:06.345Z,28.63
2022-08-17T06:34:35.289Z,25.73
2022-08-17T06:37:07.894Z,26.38
2022-08-17T06:39:41.462Z,25.70
2022-08-17T06:42:55.042Z,24.70
2022-08-17T06:45:08.388Z,23.38
2022-08-17T06:47:37.762Z,22.00
2022-08-17T06:50:10.293Z,22.15
2022-08-17T06:52:46.576Z,23.83
2022-08-17T06:55:19.533Z,22.40
2022-08-17T06:57:49.450Z,22.27
2022-08-17T07:00:20.184Z,20.63
2022-08-17T07:02:53.533Z,20.48
2022-08-17T07:05:23.737Z,20.80
2022-08-17T07:08:03.304Z,18.83
2022-08-17T07:10:36.099Z,19.73
2022-08-17T07:13:26.628Z,19.92
2022-08-17T07:16:00.938Z,18.85
2022-08-17T07:18:29.370Z,17.23
2022-08-17T07:20:59.585Z,16.83
2022-08-17T07:23:30.865Z,15.98
2022-08-17T07:26:05.570Z,17.25
2022-08-17T07:28:33.904Z,15.75
2022-08-17T07:31:03.932Z,19.08
2022-08-17T07:33:34.333Z,15.10
2022-08-17T07:36:03.179Z,18.00
2022-08-17T07:38:32.136Z,17.95
2022-08-17T07:41:02.958Z,16.90
2022-08-17T07:43:31.702Z,17.70
2022-08-17T07:46:47.652Z,16.75
2022-08-17T07:49:22.801Z,15.80
2022-08-17T07:52:48.196Z,16.17
2022-08-17T07:54:50.011Z,15.57
2022-08-17T07:57:34.525Z,15.40
2022-08-17T08:00:16.812Z,15.50
2022-08-17T08:02:47.952Z,16.67
2022-08-17T08:05:46.713Z,17.23
2022-08-17T08:08:22.294Z,17.30
2022-08-17T08:10:59.559Z,16.38
2022-08-17T08:13:28.899Z,16.75
2022-08-17T08:15:58.054Z,15.25
2022-08-17T08:18:53.355Z,15.73
2022-08-17T08:21:19.661Z,16.38
2022-08-17T08:23:48.873Z,16.55
2022-08-17T08:26:21.254Z,18.08
2022-08-17T08:28:52.928Z,13.68
2022-08-17T08:31:25.304Z,16.08
2022-08-17T08:34:01.213Z,14.45
2022-08-17T08:37:14.226Z,15.48
2022-08-17T08:39:32.359Z,15.68
2022-08-17T08:42:02.167Z,16.50
2022-08-17T08:45:00.177Z,13.45
2022-08-17T08:47:35.482Z,13.10
2022-08-17T08:50:30.151Z,12.27
2022-08-17T08:53:26.662Z,13.60
2022-08-17T08:55:56.380Z,13.45
2022-08-17T08:58:32.181Z,15.00
2022-08-17T09:01:16.999Z,13.43
2022-08-17T09:03:55.672Z,12.93
2022-08-17T09:06:40.542Z,12.13
2022-08-17T09:09:18.686Z,13.38
2022-08-17T09:12:02.759Z,12.57
2022-08-17T09:14:45.209Z,12.85
2022-08-17T09:17:18.429Z,13.02
2022-08-17T09:19:49.587Z,13.77
2022-08-17T09:22:31.627Z,12.13
2022-08-17T09:25:04.650Z,10.65
2022-08-17T09:27:34.462Z,11.60
2022-08-17T09:30:07.922Z,11.32
2022-08-17T09:32:39.293Z,12.77
2022-08-17T09:35:12.434Z,12.32
2022-08-17T09:37:49.090Z,12.30
2022-08-17T09:40:19.666Z,15.93
2022-08-17T09:42:49.998Z,15.70
2022-08-17T09:45:29.327Z,11.43
2022-08-17T09:48:00.085Z,11.93
2022-08-17T09:51:04.850Z,13.20
2022-08-17T09:53:21.533Z,14.15
2022-08-17T09:56:04.777Z,10.88
2022-08-17T09:58:39.076Z,12.98
2022-08-17T10:01:17.166Z,11.45
2022-08-17T10:04:00.944Z,11.18
2022-08-17T10:06:31.457Z,9.68
2022-08-17T10:09:08.318Z,12.00
2022-08-17T10:11:55.844Z,13.20
2022-08-17T10:14:37.594Z,10.02
2022-08-17T10:17:14.443Z,13.73
2022-08-17T10:19:46.341Z,9.82
2022-08-17T10:22:38.092Z,11.05
2022-08-17T10:25:48.735Z,10.65
2022-08-17T10:28:19.935Z,10.50
2022-08-17T10:30:50.048Z,11.77
2022-08-17T10:33:21.175Z,10.18
2022-08-17T10:35:51.786Z,10.35
2022-08-17T10:38:40.842Z,9.68
2022-08-17T10:41:25.397Z,10.05
2022-08-17T10:44:38.095Z,16.17
2022-08-17T10:46:52.400Z,10.10
2022-08-17T10:49:33.241Z,10.95
2022-08-17T10:52:02.494Z,10.52
2022-08-17T10:54:42.177Z,10.80
2022-08-17T10:57:40.364Z,10.60
2022-08-17T11:00:14.799Z,10.27
2022-08-17T11:02:50.440Z,10.75
2022-08-17T11:05:45.267Z,10.20
2022-08-17T11:08:38.911Z,10.50
2022-08-17T11:11:45.512Z,9.48
2022-08-17T11:14:25.306Z,12.32
2022-08-17T11:17:16.343Z,9.63
2022-08-17T11:20:07.411Z,9.65
2022-08-17T11:22:47.499Z,9.77
2022-08-17T11:25:17.158Z,9.00
2022-08-17T11:27:45.964Z,9.38
2022-08-17T11:30:16.550Z,9.02
2022-08-17T11:32:47.707Z,10.32
2022-08-17T11:35:32.738Z,9.35
2022-08-17T11:38:15.964Z,9.40
2022-08-17T11:40:59.953Z,11.25
2022-08-17T11:43:55.491Z,9.50
2022-08-17T11:46:51.740Z,9.77
2022-08-17T11:49:41.841Z,9.27
2022-08-17T11:52:14.367Z,11.15
2022-08-17T11:54:45.272Z,10.18
2022-08-17T11:58:02.176Z,8.93
2022-08-17T12:00:56.430Z,10.13
2022-08-17T12:03:56.172Z,10.38
2022-08-17T12:06:44.469Z,11.05
2022-08-17T12:09:15.859Z,9.95
2022-08-17T12:11:55.601Z,9.07
2022-08-17T12:15:08.361Z,11.32
2022-08-17T12:17:25.937Z,9.00
2022-08-17T12:20:15.141Z,8.27
2022-08-17T12:22:49.575Z,9.10
2022-08-17T12:25:20.103Z,8.35
2022-08-17T12:28:06.595Z,9.80
2022-08-17T12:30:36.202Z,9.88
2022-08-17T12:33:04.499Z,10.30
2022-08-17T12:35:36.920Z,11.68
2022-08-17T12:38:06.571Z,9.80
2022-08-17T12:40:55.073Z,8.80
2022-08-17T12:43:27.917Z,10.30
2022-08-17T12:45:58.224Z,10.75
2022-08-17T12:48:27.494Z,8.95
2022-08-17T12:51:02.163Z,10.13
2022-08-17T12:53:35.175Z,9.25
2022-08-17T12:56:03.654Z,8.07
2022-08-17T12:58:33.166Z,8.93
2022-08-17T13:01:02.795Z,11.05
2022-08-17T13:03:40.029Z,9.25
2022-08-17T13:06:12.207Z,8.32
2022-08-17T13:08:42.869Z,8.63
2022-08-17T13:11:18.637Z,10.20
2022-08-17T13:13:47.709Z,8.20
2022-08-17T13:16:17.865Z,11.90
2022-08-17T13:18:47.312Z,11.48
2022-08-17T13:21:27.152Z,9.75
2022-08-17T13:23:57.612Z,10.68
2022-08-17T13:26:28.183Z,8.10
2022-08-17T13:28:56.655Z,10.70
2022-08-17T13:31:33.265Z,9.65
2022-08-17T13:34:17.092Z,11.05
2022-08-17T13:36:48.816Z,10.35
2022-08-17T13:39:20.291Z,12.35
2022-08-17T13:41:48.647Z,8.73
2022-08-17T13:44:33.432Z,8.18
2022-08-17T13:47:02.104Z,11.32
2022-08-17T13:49:49.048Z,8.80
2022-08-17T13:52:38.066Z,8.45
2022-08-17T13:55:08.493Z,8.38
2022-08-17T13:57:36.710Z,8.98
2022-08-17T14:00:11.535Z,9.20
2022-08-17T14:02:39.668Z,7.80
2022-08-17T14:05:08.322Z,8.85
2022-08-17T14:07:40.888Z,8.07
2022-08-17T14:10:12.746Z,7.13
2022-08-17T14:12:42.521Z,8.88
2022-08-17T14:15:11.654Z,7.75
2022-08-17T14:17:39.840Z,7.30
2022-08-17T14:20:09.753Z,9.73
2022-08-17T14:22:41.963Z,7.47
2022-08-17T14:25:12.012Z,9.15
2022-08-17T14:27:43.565Z,9.30
2022-08-17T14:30:23.623Z,7.95
2022-08-17T14:32:52.294Z,11.60
2022-08-17T14:35:22.045Z,8.80
2022-08-17T14:37:51.984Z,9.07
2022-08-17T14:40:22.699Z,7.78
2022-08-17T14:42:51.124Z,9.07
2022-08-17T14:45:30.356Z,10.15
2022-08-17T14:48:00.655Z,8.20
2022-08-17T14:50:28.855Z,8.23
2022-08-17T14:52:59.173Z,9.32
2022-08-17T14:55:30.047Z,7.53
2022-08-17T14:57:58.356Z,9.25
2022-08-17T15:00:26.865Z,7.97
2022-08-17T15:02:58.630Z,7.65
2022-08-17T15:05:31.695Z,7.72
2022-08-17T15:08:01.768Z,8.13
2022-08-17T15:10:30.433Z,8.65
2022-08-17T15:12:58.892Z,8.05
2022-08-17T15:15:27.362Z,8.48
2022-08-17T15:17:55.868Z,7.88
2022-08-17T15:20:27.720Z,7.90
2022-08-17T15:22:57.288Z,9.25
2022-08-17T15:25:27.728Z,7.35
2022-08-17T15:27:56.664Z,7.43
2022-08-17T15:30:25.792Z,8.65
2022-08-17T15:32:55.526Z,8.50
2022-08-17T15:35:27.995Z,7.93
2022-08-17T15:38:07.860Z,7.65
2022-08-17T15:40:40.916Z,10.70
2022-08-17T15:43:11.398Z,7.07
2022-08-17T15:45:39.645Z,9.60
2022-08-17T15:48:07.958Z,7.43
2022-08-17T15:50:36.209Z,7.20
2022-08-17T15:53:05.023Z,9.15
2022-08-17T15:55:33.353Z,6.30
2022-08-17T15:58:03.376Z,7.53
2022-08-17T16:00:31.559Z,8.20
2022-08-17T16:03:58.394Z,11.00
2022-08-17T16:06:07.322Z,9.00
2022-08-17T16:08:38.455Z,7.28
2022-08-17T16:11:08.389Z,8.00
2022-08-17T16:13:39.971Z,8.20
2022-08-17T16:16:08.545Z,8.00
2022-08-17T16:18:36.890Z,9.70
2022-08-17T16:21:21.270Z,7.05
2022-08-17T16:23:49.673Z,9.68
2022-08-17T16:26:18.217Z,7.88
2022-08-17T16:28:47.915Z,8.10
2022-08-17T16:31:16.737Z,8.13
2022-08-17T16:34:01.037Z,7.90
2022-08-17T16:36:33.512Z,8.07
2022-08-17T16:39:01.802Z,6.97
2022-08-17T16:41:45.396Z,8.45
2022-08-17T16:44:15.941Z,7.95
2022-08-17T16:46:45.493Z,10.13
2022-08-17T16:49:25.711Z,8.88
2022-08-17T16:52:03.434Z,7.45
2022-08-17T16:54:31.653Z,9.70
2022-08-17T16:57:00.307Z,9.82
2022-08-17T16:59:40.720Z,8.50
2022-08-17T17:02:11.352Z,8.45
2022-08-17T17:04:43.445Z,9.80
2022-08-17T17:07:20.581Z,8.25
2022-08-17T17:09:52.699Z,8.68
2022-08-17T17:12:59.613Z,9.05
2022-08-17T17:15:11.266Z,9.70
2022-08-17T17:17:39.942Z,7.80
2022-08-17T17:20:09.749Z,8.27
2022-08-17T17:22:42.798Z,7.88
2022-08-17T17:25:13.231Z,8.27
2022-08-17T17:27:47.367Z,8.27
2022-08-17T17:30:20.956Z,8.60
2022-08-17T17:32:52.031Z,7.72
2022-08-17T17:35:21.847Z,11.63
2022-08-17T17:37:50.319Z,8.45
2022-08-17T17:40:21.632Z,8.23
2022-08-17T17:42:50.542Z,9.60
2022-08-17T17:45:23.301Z,8.30
2022-08-17T17:47:51.720Z,9.13
2022-08-17T17:50:21.141Z,8.27
2022-08-17T17:52:54.481Z,8.30
2022-08-17T17:55:32.979Z,8.20
2022-08-17T17:58:07.632Z,8.40
2022-08-17T18:00:40.043Z,8.90
2022-08-17T18:03:20.731Z,8.45
2022-08-17T18:06:20.009Z,8.27
2022-08-17T18:08:59.533Z,7.75
2022-08-17T18:11:44.344Z,11.90
2022-08-17T18:14:19.159Z,8.60
2022-08-17T18:16:48.907Z,8.38
2022-08-17T18:19:20.746Z,10.35
2022-08-17T18:21:50.309Z,8.43
2022-08-17T18:24:29.242Z,9.88
2022-08-17T18:26:58.799Z,8.55
2022-08-17T18:29:36.495Z,8.77
2022-08-17T18:32:28.975Z,12.18
2022-08-17T18:34:58.850Z,8.80
2022-08-17T18:37:36.284Z,8.82
2022-08-17T18:40:33.404Z,10.70
2022-08-17T18:43:07.906Z,9.18
2022-08-17T18:45:39.699Z,11.07
2022-08-17T18:48:36.925Z,9.23
2022-08-17T18:51:21.600Z,9.20
2022-08-17T18:54:17.912Z,11.73
2022-08-17T18:56:50.517Z,10.75
2022-08-17T18:59:30.884Z,11.10
2022-08-17T19:02:24.960Z,11.02
2022-08-17T19:05:10.306Z,11.23
2022-08-17T19:07:40.351Z,11.77
2022-08-17T19:10:14.784Z,12.98
2022-08-17T19:12:46.044Z,12.23
2022-08-17T19:15:16.258Z,16.58
2022-08-17T19:17:48.454Z,12.85
2022-08-17T19:20:19.847Z,12.85
2022-08-17T19:23:11.471Z,12.18
2022-08-17T19:25:42.061Z,12.68
2022-08-17T19:28:22.334Z,16.00
2022-08-17T19:30:51.712Z,13.38
2022-08-17T19:33:20.674Z,12.70
2022-08-17T19:36:07.345Z,13.10
2022-08-17T19:38:41.745Z,11.65
2022-08-17T19:41:13.141Z,13.65
2022-08-17T19:43:55.145Z,12.48
2022-08-17T19:46:27.486Z,12.85
2022-08-17T19:49:00.348Z,13.60
2022-08-17T19:51:35.224Z,13.70
2022-08-17T19:54:06.980Z,14.65
2022-08-17T19:56:39.806Z,13.38
2022-08-17T20:01:55.016Z,13.90
2022-08-17T20:04:32.772Z,13.35
2022-08-17T20:07:04.446Z,13.13
2022-08-17T20:09:36.309Z,13.60
2022-08-17T20:12:07.254Z,14.75
2022-08-17T20:14:37.807Z,14.25
2022-08-17T20:17:06.057Z,13.80
2022-08-17T20:19:38.091Z,16.77
2022-08-17T20:22:11.063Z,13.80
2022-08-17T20:24:43.082Z,13.88
2022-08-17T20:27:15.770Z,13.88
2022-08-17T20:30:05.448Z,15.05
2022-08-17T20:32:35.630Z,14.10
2022-08-17T20:35:26.207Z,13.13
2022-08-17T20:37:59.878Z,13.27
2022-08-17T20:40:33.818Z,14.95
2022-08-17T20:43:32.538Z,13.43
2022-08-17T20:46:08.654Z,14.65
2022-08-17T20:48:39.811Z,14.50
2022-08-17T20:51:17.435Z,15.02
2022-08-17T20:54:14.562Z,15.35
2022-08-17T20:56:51.233Z,14.27
2022-08-17T20:59:57.101Z,15.52
2022-08-17T21:02:26.613Z,15.50
2022-08-17T21:05:34.649Z,15.15
2022-08-17T21:08:14.186Z,14.65
2022-08-17T21:10:46.933Z,13.23
2022-08-17T21:13:34.996Z,15.23
2022-08-17T21:16:06.673Z,15.75
2022-08-17T21:18:38.730Z,14.77
2022-08-17T21:21:17.639Z,15.10
2022-08-17T21:24:12.904Z,15.98
2022-08-17T21:26:50.395Z,15.57
2022-08-17T21:29:31.467Z,15.77
2022-08-17T21:32:19.269Z,15.63
2022-08-17T21:35:28.725Z,16.17
2022-08-17T21:38:00.403Z,17.80
2022-08-17T21:40:30.054Z,17.70
2022-08-17T21:43:01.601Z,17.98
2022-08-17T21:45:32.108Z,16.42
2022-08-17T21:48:14.528Z,17.15
2022-08-17T21:50:44.638Z,15.65
2022-08-17T21:53:14.607Z,15.57
2022-08-17T21:55:42.749Z,14.80
2022-08-17T21:58:24.055Z,16.38
2022-08-17T22:01:14.572Z,16.50
2022-08-17T22:03:42.849Z,21.20
2022-08-17T22:06:22.374Z,20.02
2022-08-17T22:09:01.257Z,21.20
2022-08-17T22:11:29.497Z,22.38
2022-08-17T22:14:05.098Z,18.70
2022-08-17T22:16:33.873Z,16.63
2022-08-17T22:19:02.162Z,17.58
2022-08-17T22:21:30.448Z,21.13
2022-08-17T22:24:06.839Z,17.02
2022-08-17T22:27:01.128Z,20.17
2022-08-17T22:29:57.084Z,18.10
2022-08-17T22:32:37.397Z,17.50
2022-08-17T22:35:28.649Z,15.88
2022-08-17T22:37:56.985Z,18.13
2022-08-17T22:40:26.638Z,18.17
2022-08-17T22:42:54.805Z,17.60
2022-08-17T22:45:24.386Z,16.25
2022-08-17T22:47:55.707Z,16.35
2022-08-17T22:50:24.666Z,16.13
2022-08-17T22:53:17.459Z,17.27
2022-08-17T22:56:09.728Z,18.65
2022-08-17T22:59:00.198Z,17.13
2022-08-17T23:01:31.436Z,18.33
2022-08-17T23:04:01.355Z,16.63
2022-08-17T23:06:29.826Z,16.52
2022-08-17T23:08:58.176Z,18.08
2022-08-17T23:11:42.793Z,16.52
2022-08-17T23:14:15.828Z,17.02
2022-08-17T23:16:45.462Z,17.52
2022-08-17T23:19:15.511Z,16.80
2022-08-17T23:21:44.819Z,16.63
2022-08-17T23:24:13.605Z,16.73
2022-08-17T23:26:41.854Z,15.82
2022-08-17T23:29:10.112Z,16.98
2022-08-17T23:31:38.699Z,16.30
2022-08-17T23:34:10.124Z,18.45
2022-08-17T23:36:38.419Z,16.73
2022-08-17T23:39:07.369Z,18.30
2022-08-17T23:41:37.571Z,18.40
2022-08-17T23:44:06.473Z,18.00
2022-08-17T23:46:34.802Z,17.50
2022-08-17T23:49:03.412Z,17.98
2022-08-17T23:51:34.674Z,17.85
2022-08-17T23:54:08.004Z,17.77
2022-08-17T23:56:40.107Z,17.27
2022-08-17T23:59:08.279Z,18.52
